Time;durP1;ratioP1;P1;durP2;ratioP2;P2;SDS_P1;SDS_P2;PMS_P1;PMS_P2;Temp;Humidity;BMP_temperature;BMP_pressure;BME280_temperature;BME280_humidity;BME280_pressure;Samples;Min_cycle;Max_cycle;Signal;HPM_P1;HPM_P2
2022/04/28 03:57:12;;;;;;;11.60;9.23;;;;;;;9.19;100.00;100831.03;6510982;26;20180;-84
2022/04/28 04:00:23;;;;;;;10.02;8.60;;;;;;;9.19;100.00;100839.09;6641819;26;34599;-84
2022/04/28 04:03:33;;;;;;;11.50;9.05;;;;;;;9.19;100.00;100839.09;6633785;26;33510;-84
2022/04/28 04:06:43;;;;;;;10.45;9.07;;;;;;;9.19;100.00;100839.09;6613750;26;31802;-84
2022/04/28 04:09:54;;;;;;;10.90;8.90;;;;;;;9.14;100.00;100835.19;6613412;26;31569;-84
2022/04/28 04:13:05;;;;;;;11.55;8.70;;;;;;;9.18;100.00;100836.56;6613676;26;32659;-84
2022/04/28 04:16:25;;;;;;;9.40;8.32;;;;;;;9.17;100.00;100837.56;6633687;26;33125;-84
2022/04/28 04:19:35;;;;;;;10.43;8.25;;;;;;;9.13;100.00;100842.41;6633127;26;33448;-84
2022/04/28 04:22:48;;;;;;;10.63;8.93;;;;;;;9.08;100.00;100842.03;6633187;26;34151;-84
2022/04/28 04:25:58;;;;;;;9.93;8.25;;;;;;;9.04;100.00;100846.03;6633547;26;34400;-84
2022/04/28 04:29:13;;;;;;;11.12;8.98;;;;;;;9.03;100.00;100839.81;6635667;26;33874;-88
2022/04/28 04:32:28;;;;;;;10.15;8.88;;;;;;;9.03;100.00;100836.28;6614006;26;32874;-85
2022/04/28 04:35:42;;;;;;;11.10;8.47;;;;;;;9.06;100.00;100842.19;6633818;26;33493;-85
2022/04/28 04:38:52;;;;;;;9.63;8.45;;;;;;;9.11;100.00;100839.03;6613676;26;31921;-85
2022/04/28 04:42:01;;;;;;;11.60;9.10;;;;;;;9.03;100.00;100849.72;6637553;26;33557;-85
2022/04/28 04:45:11;;;;;;;12.07;9.23;;;;;;;9.01;100.00;100849.03;6634885;26;33816;-84
2022/04/28 04:48:31;;;;;;;9.70;8.35;;;;;;;9.12;100.00;100851.44;6633868;26;33543;-84
2022/04/28 04:51:43;;;;;;;10.45;9.18;;;;;;;9.18;100.00;100842.75;6634081;26;33883;-84
2022/04/28 04:54:58;;;;;;;10.02;8.80;;;;;;;9.20;100.00;100848.84;6640521;26;34401;-84
2022/04/28 04:58:17;;;;;;;10.60;8.32;;;;;;;9.24;100.00;100852.91;6635141;26;33924;-84
2022/04/28 05:01:31;;;;;;;11.32;8.90;;;;;;;9.29;100.00;100855.09;6586965;27;32736;-84
2022/04/28 05:04:39;;;;;;;12.23;9.35;;;;;;;9.42;100.00;100860.91;6607237;27;33609;-84
2022/04/28 05:07:48;;;;;;;11.55;9.10;;;;;;;9.44;100.00;100861.56;6588094;27;31710;-85
2022/04/28 05:10:58;;;;;;;11.70;9.38;;;;;;;9.47;100.00;100861.25;6607410;27;32339;-89
2022/04/28 05:14:07;;;;;;;10.63;8.98;;;;;;;9.52;100.00;100863.47;6589697;27;33142;-86
2022/04/28 05:17:16;;;;;;;11.07;8.85;;;;;;;9.57;100.00;100866.53;6586727;27;34188;-85
2022/04/28 05:20:26;;;;;;;10.70;8.90;;;;;;;9.63;100.00;100860.53;6589987;27;33550;-85
2022/04/28 05:23:34;;;;;;;9.73;8.55;;;;;;;9.66;100.00;100868.28;6588684;27;31836;-85
2022/04/28 05:26:46;;;;;;;11.95;9.80;;;;;;;9.81;100.00;100867.69;6591522;27;33693;-85
2022/04/28 05:30:03;;;;;;;11.82;9.80;;;;;;;9.87;100.00;100869.72;6589070;27;32076;-85
2022/04/28 05:33:19;;;;;;;11.85;9.80;;;;;;;9.94;100.00;100884.19;6591396;27;32104;-85
2022/04/28 05:36:32;;;;;;;12.23;10.05;;;;;;;10.03;100.00;100882.38;6620542;27;33916;-85
2022/04/28 05:39:43;;;;;;;11.00;9.82;;;;;;;10.12;100.00;100884.97;6608826;27;33815;-85
2022/04/28 05:46:18;;;;;;;;;;;;;;;10.47;100.00;100885.78;6586296;27;32515;-84
2022/04/28 05:49:25;;;;;;;9.57;8.05;;;;;;;10.57;100.00;100881.06;6614279;27;33589;-85
2022/04/28 05:52:35;;;;;;;9.70;7.78;;;;;;;10.85;100.00;100891.53;6569692;27;439702;-85
2022/04/28 05:55:42;;;;;;;9.50;7.32;;;;;;;10.94;100.00;100895.94;6606651;27;33502;-89
2022/04/28 05:58:51;;;;;;;9.20;7.68;;;;;;;11.08;100.00;100897.94;6606091;27;33492;-89
2022/04/28 06:01:58;;;;;;;9.77;7.43;;;;;;;11.22;97.62;100888.34;6611414;27;33974;-85
2022/04/28 06:05:06;;;;;;;10.57;6.57;;;;;;;11.41;97.64;100889.00;6585895;27;33284;-85
2022/04/28 06:08:19;;;;;;;8.32;7.40;;;;;;;11.48;96.98;100892.69;6585873;27;30765;-85
2022/04/28 06:11:31;;;;;;;9.15;7.18;;;;;;;11.60;96.98;100891.31;6589564;27;32107;-85
2022/04/28 06:14:39;;;;;;;9.32;7.05;;;;;;;11.67;94.95;100902.25;6599975;27;32017;-85
2022/04/28 06:17:53;;;;;;;9.65;7.22;;;;;;;11.69;96.23;100902.94;6585221;27;32818;-85
2022/04/28 06:21:03;;;;;;;8.82;7.30;;;;;;;11.86;95.08;100904.63;6605595;27;33243;-85
2022/04/28 06:24:13;;;;;;;8.15;7.03;;;;;;;12.02;94.89;100907.28;6586708;27;32186;-85
2022/04/28 06:27:24;;;;;;;10.20;7.57;;;;;;;12.31;91.46;100911.16;6585589;27;32071;-85
2022/04/28 06:30:28;;;;;;;7.85;6.35;;;;;;;12.44;90.44;100906.06;6608089;27;34433;-85
2022/04/28 06:33:40;;;;;;;9.63;6.87;;;;;;;12.52;88.03;100915.13;6586268;27;32415;-85
2022/04/28 06:36:51;;;;;;;8.52;6.85;;;;;;;12.76;87.72;100916.84;6586681;27;32199;-85
2022/04/28 06:39:57;;;;;;;8.70;6.80;;;;;;;12.75;86.74;100917.84;6605016;27;33988;-85
2022/04/28 06:43:10;;;;;;;9.77;7.25;;;;;;;12.90;84.72;100918.78;6591020;27;32862;-85
2022/04/28 06:46:38;;;;;;;7.47;6.03;;;;;;;13.01;87.80;100917.50;6577672;27;31368;-90
2022/04/28 06:49:51;;;;;;;6.68;5.50;;;;;;;13.12;83.58;100919.78;6586023;27;33526;-85
2022/04/28 06:52:58;;;;;;;6.33;5.70;;;;;;;13.11;82.59;100915.41;6616902;27;33803;-84
2022/04/28 06:56:06;;;;;;;7.35;6.18;;;;;;;13.17;81.67;100914.69;6592125;27;32452;-84
2022/04/28 06:59:15;;;;;;;6.35;5.50;;;;;;;13.30;83.09;100919.50;6590096;27;33399;-85
2022/04/28 07:02:24;;;;;;;6.90;5.80;;;;;;;13.22;81.66;100920.41;6589052;27;31519;-84
2022/04/28 07:05:29;;;;;;;7.93;5.10;;;;;;;13.33;82.18;100922.66;6606627;27;34262;-84
2022/04/28 07:08:38;;;;;;;8.82;5.78;;;;;;;13.28;80.77;100914.28;6603698;27;33307;-84
2022/04/28 07:11:48;;;;;;;6.95;5.20;;;;;;;13.31;82.15;100918.50;6586070;27;33208;-84
2022/04/28 07:14:54;;;;;;;7.20;5.73;;;;;;;13.35;80.25;100917.94;6586176;27;31844;-85
2022/04/28 07:18:03;;;;;;;10.45;5.65;;;;;;;13.45;78.44;100919.53;6587489;27;32661;-84
2022/04/28 07:21:11;;;;;;;7.15;5.70;;;;;;;13.43;79.32;100918.91;6586671;27;32481;-85
2022/04/28 07:24:17;;;;;;;7.78;5.60;;;;;;;13.34;80.38;100920.84;6586636;27;33074;-85
2022/04/28 07:27:24;;;;;;;12.35;5.85;;;;;;;13.33;80.09;100921.84;6606285;27;34963;-85
2022/04/28 07:30:33;;;;;;;6.53;5.33;;;;;;;13.43;77.94;100927.00;6605867;27;33156;-86
2022/04/28 07:33:40;;;;;;;5.87;5.18;;;;;;;13.70;78.37;100930.97;6603478;27;33058;-85
2022/04/28 07:36:50;;;;;;;8.57;5.60;;;;;;;13.93;77.96;100934.44;6584955;27;32136;-85
2022/04/28 07:39:57;;;;;;;10.43;4.95;;;;;;;14.09;76.74;100935.28;6613084;27;34113;-85
2022/04/28 07:43:05;;;;;;;8.80;4.60;;;;;;;14.24;76.08;100931.56;6604914;27;34096;-85
2022/04/28 07:46:10;;;;;;;9.98;4.57;;;;;;;14.56;74.68;100934.88;6585190;27;32189;-85
2022/04/28 07:49:21;;;;;;;6.28;4.93;;;;;;;14.54;73.37;100936.94;6584587;27;33068;-89
2022/04/28 07:52:29;;;;;;;6.40;4.28;;;;;;;14.82;70.88;100938.91;6605366;27;33569;-90
2022/04/28 07:55:36;;;;;;;5.75;4.57;;;;;;;14.75;71.57;100930.72;6585859;27;32365;-86
2022/04/28 07:58:45;;;;;;;6.87;4.57;;;;;;;14.81;69.81;100931.84;6605656;27;34908;-86
2022/04/28 08:02:14;;;;;;;7.85;4.95;;;;;;;14.90;70.73;100930.66;6584220;27;32130;-86
2022/04/28 08:05:26;;;;;;;19.12;4.80;;;;;;;14.99;72.93;100936.81;6605909;27;33253;-87
2022/04/28 08:08:38;;;;;;;4.75;3.90;;;;;;;15.01;68.62;100934.75;6586016;27;31652;-86
2022/04/28 08:11:47;;;;;;;8.27;4.97;;;;;;;15.00;69.44;100927.63;6606218;27;33745;-85
2022/04/28 08:14:56;;;;;;;5.72;4.40;;;;;;;15.10;71.39;100934.44;6586793;27;32184;-86
2022/04/28 08:18:08;;;;;;;5.05;4.20;;;;;;;15.08;67.75;100931.06;6607519;27;33554;-86
2022/04/28 08:21:15;;;;;;;6.12;4.37;;;;;;;15.29;67.08;100932.91;6595185;27;31794;-85
2022/04/28 08:24:23;;;;;;;7.40;4.68;;;;;;;15.74;66.71;100938.13;6587313;27;32974;-86
2022/04/28 08:27:33;;;;;;;5.85;3.60;;;;;;;16.26;64.21;100937.59;6585956;27;32370;-85
2022/04/28 08:30:42;;;;;;;5.03;3.85;;;;;;;16.53;57.76;100932.28;6610029;27;35130;-85
2022/04/28 08:33:55;;;;;;;4.62;3.17;;;;;;;16.87;53.87;100946.84;6621183;26;33553;-86
2022/04/28 08:37:09;;;;;;;6.07;3.55;;;;;;;16.63;52.95;100948.19;6607347;27;33261;-85
2022/04/28 08:40:18;;;;;;;5.53;3.42;;;;;;;16.48;52.80;100953.78;6622289;27;34963;-90
2022/04/28 08:43:29;;;;;;;4.87;3.50;;;;;;;16.60;52.64;100945.87;6592950;27;32166;-86
2022/04/28 08:46:51;;;;;;;6.57;3.37;;;;;;;16.95;54.73;100955.66;6587397;27;32255;-85
2022/04/28 08:50:05;;;;;;;3.37;3.08;;;;;;;17.12;53.60;100953.38;6607359;27;33412;-86
2022/04/28 08:53:19;;;;;;;7.25;3.40;;;;;;;17.40;50.44;100955.06;6587747;27;33309;-86
2022/04/28 08:56:29;;;;;;;5.10;3.30;;;;;;;17.13;50.40;100959.66;6586974;27;31811;-86
2022/04/28 08:59:38;;;;;;;3.83;3.33;;;;;;;17.38;52.08;100958.03;6588573;27;32565;-86
2022/04/28 09:02:44;;;;;;;5.12;3.20;;;;;;;17.71;49.27;100957.19;6594652;27;31643;-86
2022/04/28 09:05:49;;;;;;;4.57;3.30;;;;;;;18.02;49.35;100959.28;6598651;27;32154;-86
2022/04/28 09:09:04;;;;;;;4.65;3.40;;;;;;;18.42;47.75;100964.59;6600768;27;32819;-86
2022/04/28 09:12:21;;;;;;;4.93;3.40;;;;;;;18.74;48.29;100956.53;6598050;27;31948;-86
2022/04/28 09:15:32;;;;;;;3.50;3.12;;;;;;;18.89;45.66;100959.78;6589350;27;31930;-86
2022/04/28 09:18:41;;;;;;;3.85;3.17;;;;;;;18.84;48.05;100950.59;6594685;27;33707;-87
2022/04/28 09:22:02;;;;;;;4.30;3.00;;;;;;;18.76;46.05;100952.53;6619648;27;33657;-88
2022/04/28 09:25:10;;;;;;;4.75;3.28;;;;;;;18.74;45.52;100954.63;6621584;27;34132;-89
2022/04/28 09:28:23;;;;;;;4.75;3.50;;;;;;;18.23;46.27;100955.44;6598746;27;32434;-87
2022/04/28 09:31:35;;;;;;;5.53;3.40;;;;;;;18.11;46.62;100957.16;6619353;27;34098;-87
2022/04/28 09:35:09;;;;;;;3.92;3.40;;;;;;;18.15;47.51;100961.12;6586852;27;31520;-87
2022/04/28 09:38:21;;;;;;;4.07;3.33;;;;;;;18.09;47.42;100959.25;6586500;27;31837;-87
2022/04/28 09:45:20;;;;;;;4.45;3.67;;;;;;;18.10;47.83;100966.38;6606487;27;34717;-86
2022/04/28 09:48:32;;;;;;;3.85;3.45;;;;;;;18.44;46.05;100967.12;6585853;27;32508;-87
2022/04/28 09:51:41;;;;;;;3.33;3.00;;;;;;;18.59;46.42;100963.06;6606495;27;33524;-87
2022/04/28 09:54:57;;;;;;;4.10;3.10;;;;;;;18.47;47.99;100964.78;6604484;27;32226;-91
2022/04/28 09:58:09;;;;;;;4.85;3.47;;;;;;;18.48;45.87;100973.81;6606316;27;34239;-87
2022/04/28 10:01:20;;;;;;;4.20;3.50;;;;;;;18.67;47.03;100970.16;6604212;27;34201;-87
2022/04/28 10:04:34;;;;;;;5.57;3.70;;;;;;;18.42;45.87;100970.03;6585162;27;32343;-87
2022/04/28 10:07:45;;;;;;;4.85;3.45;;;;;;;18.32;47.21;100973.22;6605893;27;33975;-87
2022/04/28 10:11:17;;;;;;;4.03;3.28;;;;;;;17.99;47.00;100967.00;6606910;27;33455;-87
2022/04/28 10:14:26;;;;;;;3.20;2.90;;;;;;;18.04;48.98;100959.03;6588841;27;32248;-87
2022/04/28 10:18:08;;;;;;;4.18;3.45;;;;;;;18.01;47.76;100957.56;6606242;27;33994;-87
2022/04/28 10:21:20;;;;;;;4.15;3.40;;;;;;;17.98;46.73;100966.19;6586872;27;32016;-87
2022/04/28 10:35:09;;;;;;;4.15;3.37;;;;;;;18.28;46.91;100966.53;6582531;27;33528;-87
2022/04/28 10:42:45;;;;;;;5.73;3.30;;;;;;;18.93;45.73;100962.94;6602382;26;238244;-86
2022/04/28 10:45:49;;;;;;;4.12;3.28;;;;;;;18.91;43.12;100960.41;6635083;26;33723;-87
2022/04/28 10:48:59;;;;;;;4.57;2.87;;;;;;;19.05;41.76;100965.81;6613909;26;33391;-87
2022/04/28 10:52:04;;;;;;;4.53;3.00;;;;;;;18.82;42.00;100960.91;6632086;26;33222;-87
2022/04/28 10:55:10;;;;;;;4.60;2.87;;;;;;;18.65;41.71;100966.81;6634078;26;33348;-86
2022/04/28 10:58:23;;;;;;;5.85;3.20;;;;;;;18.39;42.97;100970.47;6614075;26;33478;-86
2022/04/28 11:01:31;;;;;;;2.80;2.60;;;;;;;18.25;44.30;100966.13;6614265;26;31819;-86
2022/04/28 11:04:35;;;;;;;5.95;2.95;;;;;;;18.39;44.28;100975.94;6633895;26;33925;-86
2022/04/28 11:07:45;;;;;;;5.10;3.42;;;;;;;18.59;42.03;100976.69;6635607;26;33746;-87
2022/04/28 11:11:05;;;;;;;5.07;3.72;;;;;;;19.05;41.63;100974.84;6624403;26;32226;-87
2022/04/28 11:14:13;;;;;;;6.40;3.30;;;;;;;19.44;40.48;100978.34;6636982;26;33677;-86
2022/04/28 11:17:23;;;;;;;4.40;3.30;;;;;;;19.61;39.54;100979.47;6634600;26;34248;-87
2022/04/28 11:20:29;;;;;;;6.57;3.28;;;;;;;20.03;37.81;100968.78;6641986;26;34596;-87
2022/04/28 11:23:41;;;;;;;6.87;3.15;;;;;;;20.54;37.03;100978.59;6615011;26;31804;-91
2022/04/28 11:26:52;;;;;;;3.87;3.25;;;;;;;20.61;37.76;100981.22;6615007;26;32435;-87
2022/04/28 11:29:58;;;;;;;5.35;4.07;;;;;;;20.36;41.28;100973.09;6623126;26;32332;-87
2022/04/28 11:33:01;;;;;;;6.00;3.97;;;;;;;19.10;45.03;100979.63;6655954;26;33608;-87
2022/04/28 11:36:17;;;;;;;6.40;3.92;;;;;;;18.36;47.86;100992.72;6614849;26;33572;-87
2022/04/28 11:39:24;;;;;;;5.97;4.03;;;;;;;18.19;49.04;100984.16;6612927;26;31785;-86
2022/04/28 11:42:28;;;;;;;7.15;3.97;;;;;;;18.31;51.43;100990.66;6612825;26;32759;-86
2022/04/28 11:45:32;;;;;;;5.05;3.95;;;;;;;18.27;49.07;100992.09;6634602;26;34261;-87
2022/04/28 11:48:36;;;;;;;5.65;3.87;;;;;;;18.39;49.95;100997.75;6634991;26;33177;-86
2022/04/28 11:51:39;;;;;;;6.68;3.70;;;;;;;18.68;48.04;100990.09;6612829;26;33799;-87
2022/04/28 11:54:43;;;;;;;4.25;3.80;;;;;;;18.98;47.07;100983.06;6616033;26;32544;-87
2022/04/28 11:57:48;;;;;;;5.90;3.95;;;;;;;19.94;45.27;100986.56;6625408;26;32076;-87
2022/04/28 12:00:51;;;;;;;4.93;3.50;;;;;;;20.58;44.09;100989.91;6617307;26;32055;-87
2022/04/28 12:03:56;;;;;;;7.03;3.55;;;;;;;21.70;40.87;100989.34;6612608;26;32733;-87
2022/04/28 12:06:58;;;;;;;7.07;4.47;;;;;;;23.42;38.57;100984.22;6614670;26;31942;-88
2022/04/28 12:20:26;;;;;;;3.47;2.50;;;;;;;22.24;37.75;100986.53;6632445;26;34212;-92
2022/04/28 12:23:29;;;;;;;3.42;2.80;;;;;;;22.38;34.42;100996.19;6633751;26;33323;-92
2022/04/28 12:26:34;;;;;;;4.03;3.00;;;;;;;22.63;34.69;100996.72;6617828;26;32370;-91
2022/04/28 12:29:54;;;;;;;3.05;2.75;;;;;;;24.37;34.46;100982.44;6638288;26;33380;-88
2022/04/28 12:32:58;;;;;;;2.60;2.40;;;;;;;23.92;32.53;100981.50;6647461;26;33708;-88
2022/04/28 12:36:04;;;;;;;3.22;2.60;;;;;;;23.18;32.04;100986.28;6613996;26;33526;-88
2022/04/28 12:39:07;;;;;;;3.90;2.78;;;;;;;22.99;32.69;100986.50;6634280;26;33573;-87
2022/04/28 12:42:10;;;;;;;3.10;2.80;;;;;;;22.45;34.04;100987.81;6612436;26;32074;-88
2022/04/28 12:45:14;;;;;;;4.20;2.97;;;;;;;22.18;35.72;100982.84;6642524;26;34561;-87
2022/04/28 12:48:33;;;;;;;2.62;2.33;;;;;;;22.22;34.13;100991.44;6640745;26;34912;-87
2022/04/28 12:51:47;;;;;;;3.10;2.80;;;;;;;23.23;33.51;100978.12;6616421;26;32660;-86
2022/04/28 12:55:00;;;;;;;5.05;3.00;;;;;;;23.84;32.92;100978.34;6636003;26;33226;-87
2022/04/28 12:58:03;;;;;;;4.15;3.20;;;;;;;23.65;34.36;100973.06;6635321;26;33621;-87
2022/04/28 13:01:12;;;;;;;3.50;3.20;;;;;;;23.62;33.19;100981.00;6614696;26;32843;-87
2022/04/28 13:04:22;;;;;;;3.10;2.80;;;;;;;25.10;32.05;100981.12;6614960;26;32063;-87
2022/04/28 13:07:24;;;;;;;3.70;3.25;;;;;;;26.02;30.42;100979.16;6635780;26;33571;-87
2022/04/28 13:10:27;;;;;;;3.25;2.95;;;;;;;24.76;31.78;100980.47;6621605;26;33743;-87
2022/04/28 13:13:31;;;;;;;4.68;2.92;;;;;;;23.93;33.14;100980.44;6618764;26;32505;-86
2022/04/28 13:16:33;;;;;;;3.42;2.85;;;;;;;22.93;34.54;100989.34;6612508;26;32735;-86
2022/04/28 13:19:36;;;;;;;5.25;3.28;;;;;;;22.48;36.15;100988.16;6634055;26;34368;-86
2022/04/28 13:22:40;;;;;;;3.78;3.30;;;;;;;22.26;36.91;100989.84;6635084;26;33514;-86
2022/04/28 13:25:43;;;;;;;3.70;2.80;;;;;;;21.66;36.77;100999.13;6634749;26;34111;-87
2022/04/28 13:28:47;;;;;;;3.35;2.87;;;;;;;21.31;37.23;100988.06;6613816;26;32183;-87
2022/04/28 13:31:51;;;;;;;5.65;3.15;;;;;;;20.75;37.81;100988.22;6635155;26;33295;-87
2022/04/28 13:34:54;;;;;;;4.40;3.17;;;;;;;20.83;40.56;100993.37;6620251;26;32309;-87
2022/04/28 13:37:57;;;;;;;3.50;3.20;;;;;;;20.36;37.86;100994.97;6636799;26;34338;-87
2022/04/28 13:41:01;;;;;;;3.60;3.08;;;;;;;20.22;37.99;100994.28;6631507;26;33187;-87
2022/04/28 13:44:06;;;;;;;3.30;3.00;;;;;;;20.59;38.42;100992.41;6615144;26;33338;-91
2022/04/28 13:47:09;;;;;;;4.72;3.05;;;;;;;20.74;36.60;100985.72;6633828;26;33643;-92
2022/04/28 13:50:12;;;;;;;4.00;3.00;;;;;;;21.12;35.77;100990.88;6614375;26;32112;-92
2022/04/28 13:53:18;;;;;;;3.33;2.70;;;;;;;21.60;36.23;100987.22;6612163;26;32200;-89
2022/04/28 13:56:23;;;;;;;3.65;2.85;;;;;;;22.32;35.96;100984.25;6634644;26;34027;-86
2022/04/28 13:59:25;;;;;;;3.58;2.85;;;;;;;22.81;32.90;100973.72;6635300;26;33672;-87
2022/04/28 14:02:28;;;;;;;3.62;2.80;;;;;;;23.86;32.10;100973.44;6615800;26;32327;-87
2022/04/28 14:05:31;;;;;;;3.20;2.90;;;;;;;26.81;29.33;100969.06;6623910;26;32130;-88
2022/04/28 14:08:36;;;;;;;4.93;2.70;;;;;;;27.00;26.75;100968.56;6627326;26;32999;-87
2022/04/28 14:11:39;;;;;;;4.30;2.80;;;;;;;26.78;28.68;100961.31;6651971;26;34826;-87
2022/04/28 14:14:42;;;;;;;2.65;2.33;;;;;;;25.65;28.79;100970.03;6648748;26;34935;-87
2022/04/28 14:17:46;;;;;;;2.60;2.40;;;;;;;24.37;28.97;100960.41;6602798;26;33200;-87
2022/04/28 14:20:54;;;;;;;4.12;2.60;;;;;;;23.64;30.17;100967.84;6636314;26;33710;-87
2022/04/28 14:23:57;;;;;;;;;;;;;;;23.70;32.60;100964.94;6639279;26;33229;-87
2022/04/28 14:27:00;;;;;;;3.67;2.85;;;;;;;24.07;31.86;100964.38;6632972;26;33177;-87
2022/04/28 14:30:06;;;;;;;3.10;2.80;;;;;;;25.55;30.36;100962.53;6650984;26;35118;-87
2022/04/28 14:33:12;;;;;;;3.62;3.20;;;;;;;25.47;28.99;100961.06;6623558;26;33362;-86
2022/04/28 14:36:15;;;;;;;3.80;2.72;;;;;;;24.29;30.57;100969.94;6617306;26;33001;-87
2022/04/28 14:39:18;;;;;;;3.08;2.78;;;;;;;23.16;31.31;100967.28;6637530;26;33559;-87
2022/04/28 14:42:22;;;;;;;3.85;2.90;;;;;;;22.13;32.11;100966.25;6642127;26;33692;-87
2022/04/28 14:45:26;;;;;;;3.20;2.75;;;;;;;21.51;33.81;100964.78;6617052;26;32462;-87
2022/04/28 14:52:19;;;;;;;3.08;2.85;;;;;;;21.16;34.56;100963.84;6635238;26;33788;-86
2022/04/28 15:07:28;;;;;;;4.78;3.10;;;;;;;19.48;40.52;100969.50;6630166;26;20087;-87
2022/04/28 15:10:31;;;;;;;5.12;3.28;;;;;;;19.31;39.78;100973.81;6635557;26;34051;-88
2022/04/28 15:13:35;;;;;;;6.00;3.30;;;;;;;19.16;39.22;100973.28;6615568;26;32005;-88
2022/04/28 15:16:38;;;;;;;4.72;3.30;;;;;;;18.90;41.43;100972.41;6617366;26;32598;-88
2022/04/28 15:19:41;;;;;;;4.65;3.35;;;;;;;18.74;40.69;100976.44;6616556;26;31798;-88
2022/04/28 15:22:45;;;;;;;3.70;3.40;;;;;;;18.63;41.76;100981.72;6619200;26;34026;-88
2022/04/28 15:25:47;;;;;;;3.70;3.40;;;;;;;18.58;44.35;100990.56;6636976;26;34989;-90
2022/04/28 15:28:53;;;;;;;3.80;3.45;;;;;;;18.62;42.99;100993.69;6615902;26;31858;-91
2022/04/28 15:32:11;;;;;;;3.80;3.47;;;;;;;18.66;42.05;100986.72;6611900;26;32339;31
2022/04/28 15:35:14;;;;;;;3.85;3.50;;;;;;;18.78;42.46;100982.34;6553965;27;34295;-89
2022/04/28 15:38:17;;;;;;;3.70;3.40;;;;;;;18.75;41.84;100983.59;6535145;27;31927;-89
2022/04/28 15:41:20;;;;;;;4.00;3.65;;;;;;;18.64;42.47;101002.50;6535671;27;32294;-88
2022/04/28 15:44:23;;;;;;;4.37;3.65;;;;;;;18.61;46.05;100998.31;6557754;27;33903;-89
2022/04/28 15:47:26;;;;;;;3.78;3.47;;;;;;;18.43;44.13;100998.12;6534400;27;32376;-89
2022/04/28 15:50:29;;;;;;;4.53;3.55;;;;;;;18.39;47.00;101005.09;6563908;26;33332;-88
2022/04/28 15:53:33;;;;;;;4.03;3.50;;;;;;;18.28;44.51;101001.97;6584680;26;33617;-89
2022/04/28 15:56:37;;;;;;;4.65;3.60;;;;;;;18.10;43.87;101009.97;6581650;27;33855;-89
2022/04/28 15:59:40;;;;;;;3.53;3.22;;;;;;;18.03;43.55;101009.16;6561610;27;32534;-88
